createdAt,value
2024-02-28T00:00:38.329Z,11.00
2024-02-28T00:03:06.758Z,10.00
2024-02-28T00:05:34.767Z,11.25
2024-02-28T00:08:04.178Z,9.25
2024-02-28T00:10:32.185Z,9.25
2024-02-28T00:13:00.527Z,10.75
2024-02-28T00:15:28.934Z,9.75
2024-02-28T00:17:56.977Z,9.50
2024-02-28T00:20:28.308Z,10.00
2024-02-28T00:22:56.447Z,10.00
2024-02-28T00:25:25.845Z,9.50
2024-02-28T00:27:54.308Z,9.50
2024-02-28T00:30:22.345Z,9.50
2024-02-28T00:32:51.210Z,9.00
2024-02-28T00:35:19.486Z,8.50
2024-02-28T00:37:47.503Z,9.00
2024-02-28T00:40:15.469Z,9.00
2024-02-28T00:42:44.853Z,10.00
2024-02-28T00:45:13.114Z,9.75
2024-02-28T00:47:41.666Z,8.50
2024-02-28T00:50:10.469Z,9.00
2024-02-28T00:52:38.438Z,9.00
2024-02-28T00:55:07.574Z,8.25
2024-02-28T00:57:35.596Z,8.75
2024-02-28T01:00:06.290Z,9.00
2024-02-28T01:02:36.314Z,8.00
2024-02-28T01:05:04.723Z,8.00
2024-02-28T01:07:32.698Z,8.25
2024-02-28T01:10:00.894Z,8.75
2024-02-28T01:12:28.891Z,8.25
2024-02-28T01:14:57.194Z,9.75
2024-02-28T01:17:26.538Z,7.50
2024-02-28T01:19:54.484Z,9.00
2024-02-28T01:22:22.430Z,8.25
2024-02-28T01:24:50.507Z,8.00
2024-02-28T01:27:18.572Z,8.25
2024-02-28T01:29:46.511Z,8.00
2024-02-28T01:32:14.512Z,8.00
2024-02-28T01:34:44.105Z,8.00
2024-02-28T01:37:12.037Z,8.00
2024-02-28T01:39:40.055Z,7.00
2024-02-28T01:42:08.042Z,8.00
2024-02-28T01:44:36.311Z,8.25
2024-02-28T01:47:04.542Z,8.00
2024-02-28T01:49:32.522Z,8.50
2024-02-28T01:52:01.927Z,8.00
2024-02-28T01:54:31.322Z,9.00
2024-02-28T01:56:59.365Z,7.25
2024-02-28T01:59:27.393Z,8.00
2024-02-28T02:01:55.528Z,8.25
2024-02-28T02:04:23.734Z,8.75
2024-02-28T02:06:51.740Z,7.75
2024-02-28T02:09:21.164Z,7.00
2024-02-28T02:11:49.112Z,7.50
2024-02-28T02:14:17.410Z,8.75
2024-02-28T02:16:45.407Z,7.50
2024-02-28T02:19:14.559Z,7.00
2024-02-28T02:21:44.967Z,8.00
2024-02-28T02:24:14.456Z,7.75
2024-02-28T02:26:45.187Z,8.00
2024-02-28T02:29:13.202Z,7.00
2024-02-28T02:31:43.357Z,7.25
2024-02-28T02:34:11.592Z,7.00
2024-02-28T02:36:39.550Z,8.00
2024-02-28T02:39:09.029Z,7.25
2024-02-28T02:41:39.980Z,5.75
2024-02-28T02:44:08.412Z,8.00
2024-02-28T02:46:36.356Z,7.00
2024-02-28T02:49:04.360Z,7.00
2024-02-28T02:51:32.451Z,7.50
2024-02-28T02:54:01.713Z,6.75
2024-02-28T02:56:29.680Z,7.50
2024-02-28T02:58:59.059Z,7.25
2024-02-28T03:01:27.076Z,7.50
2024-02-28T03:03:55.419Z,8.00
2024-02-28T03:06:25.353Z,7.50
2024-02-28T03:08:53.506Z,7.00
2024-02-28T03:11:21.533Z,7.00
2024-02-28T03:13:49.830Z,7.00
2024-02-28T03:16:19.389Z,7.00
2024-02-28T03:18:47.390Z,8.75
2024-02-28T03:21:15.454Z,6.00
2024-02-28T03:23:43.468Z,7.75
2024-02-28T03:26:11.557Z,7.25
2024-02-28T03:28:39.520Z,7.75
2024-02-28T03:31:07.464Z,7.00
2024-02-28T03:33:37.167Z,7.25
2024-02-28T03:36:05.934Z,7.00
2024-02-28T03:38:33.864Z,8.00
2024-02-28T03:41:01.915Z,8.00
2024-02-28T03:43:30.147Z,7.75
2024-02-28T03:45:58.186Z,8.00
2024-02-28T03:48:27.263Z,6.75
2024-02-28T03:50:56.646Z,7.50
2024-02-28T03:53:25.427Z,8.00
2024-02-28T03:55:53.411Z,8.00
2024-02-28T03:58:21.371Z,7.00
2024-02-28T04:00:49.460Z,8.00
2024-02-28T04:03:18.063Z,7.50
2024-02-28T04:05:46.056Z,8.00
2024-02-28T04:08:15.398Z,7.00
2024-02-28T04:10:43.459Z,7.00
2024-02-28T04:13:11.797Z,8.00
2024-02-28T04:15:39.858Z,7.75
2024-02-28T04:18:07.994Z,7.50
2024-02-28T04:20:35.937Z,7.00
2024-02-28T04:23:03.919Z,7.75
2024-02-28T04:25:33.257Z,8.25
2024-02-28T04:28:01.293Z,7.50
2024-02-28T04:30:29.267Z,7.75
2024-02-28T04:32:57.282Z,8.00
2024-02-28T04:35:25.617Z,7.75
2024-02-28T04:37:53.594Z,9.25
2024-02-28T04:40:21.576Z,6.75
2024-02-28T04:42:51.079Z,8.00
2024-02-28T04:45:19.520Z,7.00
2024-02-28T04:47:47.567Z,9.25
2024-02-28T04:50:15.642Z,8.00
2024-02-28T04:52:43.747Z,8.50
2024-02-28T04:55:12.098Z,8.50
2024-02-28T04:57:40.120Z,7.25
2024-02-28T05:00:13.282Z,9.00
2024-02-28T05:02:41.251Z,8.25
2024-02-28T05:05:09.696Z,9.00
2024-02-28T05:07:37.685Z,8.00
2024-02-28T05:10:06.528Z,10.75
2024-02-28T05:12:34.519Z,12.00
2024-02-28T05:15:02.898Z,13.00
2024-02-28T05:17:32.313Z,13.25
2024-02-28T05:20:00.293Z,16.50
2024-02-28T05:22:28.440Z,12.00
2024-02-28T05:24:56.687Z,13.25
2024-02-28T05:27:24.806Z,15.50
2024-02-28T05:29:52.840Z,12.50
2024-02-28T05:32:22.234Z,13.00
2024-02-28T05:34:54.088Z,13.75
2024-02-28T05:37:22.046Z,15.00
2024-02-28T05:39:49.997Z,13.00
2024-02-28T05:42:23.019Z,13.00
2024-02-28T05:44:51.589Z,13.50
2024-02-28T05:47:22.154Z,13.00
2024-02-28T05:49:51.515Z,13.50
2024-02-28T05:52:21.006Z,13.50
2024-02-28T05:54:49.818Z,12.25
2024-02-28T05:57:19.526Z,12.50
2024-02-28T05:59:47.591Z,12.00
2024-02-28T06:02:15.656Z,11.75
2024-02-28T06:04:43.951Z,13.00
2024-02-28T06:07:11.945Z,12.75
2024-02-28T06:09:41.343Z,14.00
2024-02-28T06:12:09.466Z,11.25
2024-02-28T06:14:38.752Z,12.00
2024-02-28T06:17:07.159Z,12.50
2024-02-28T06:19:35.145Z,11.50
2024-02-28T06:22:03.231Z,11.75
2024-02-28T06:24:31.286Z,11.00
2024-02-28T06:27:00.666Z,12.00
2024-02-28T06:29:28.592Z,13.50
2024-02-28T06:31:57.049Z,12.00
2024-02-28T06:34:25.799Z,12.00
2024-02-28T06:36:53.848Z,11.25
2024-02-28T06:39:21.857Z,11.25
2024-02-28T06:41:51.719Z,12.00
2024-02-28T06:44:21.805Z,11.00
2024-02-28T06:46:49.763Z,12.00
2024-02-28T06:49:17.785Z,10.00
2024-02-28T06:51:45.928Z,12.00
2024-02-28T06:54:14.277Z,11.25
2024-02-28T06:56:42.220Z,10.00
2024-02-28T06:59:10.129Z,10.00
2024-02-28T07:01:39.757Z,11.50
2024-02-28T07:04:08.135Z,10.75
2024-02-28T07:06:36.197Z,12.00
2024-02-28T07:09:04.671Z,11.00
2024-02-28T07:11:32.742Z,12.00
2024-02-28T07:14:03.356Z,11.00
2024-02-28T07:16:31.458Z,10.25
2024-02-28T07:19:00.905Z,9.00
2024-02-28T07:21:29.017Z,8.50
2024-02-28T07:23:57.217Z,10.00
2024-02-28T07:26:27.636Z,9.50
2024-02-28T07:28:56.036Z,9.75
2024-02-28T07:31:24.354Z,9.50
2024-02-28T07:33:52.665Z,10.75
2024-02-28T07:36:22.068Z,10.00
2024-02-28T07:38:50.058Z,9.25
2024-02-28T07:41:18.293Z,10.25
2024-02-28T07:43:47.225Z,9.00
2024-02-28T07:46:15.220Z,10.00
2024-02-28T07:48:43.296Z,10.00
2024-02-28T07:51:12.686Z,10.00
2024-02-28T07:53:42.375Z,10.00
2024-02-28T07:56:17.979Z,10.00
2024-02-28T07:58:46.043Z,9.25
2024-02-28T08:01:14.153Z,9.50
2024-02-28T08:03:42.842Z,10.00
2024-02-28T08:06:10.890Z,9.25
2024-02-28T08:08:38.858Z,8.00
2024-02-28T08:11:08.277Z,9.00
2024-02-28T08:13:36.488Z,10.00
2024-02-28T08:16:04.833Z,8.50
2024-02-28T08:18:32.901Z,9.75
2024-02-28T08:21:03.244Z,9.25
2024-02-28T08:23:31.778Z,9.00
2024-02-28T08:25:59.753Z,9.00
2024-02-28T08:28:29.064Z,8.75
2024-02-28T08:30:57.052Z,8.75
2024-02-28T08:33:25.531Z,9.50
2024-02-28T08:35:53.720Z,10.00
2024-02-28T08:38:21.647Z,8.00
2024-02-28T08:40:49.612Z,8.00
2024-02-28T08:43:17.819Z,8.25
2024-02-28T08:45:47.166Z,9.00
2024-02-28T08:48:15.291Z,10.00
2024-02-28T08:50:43.280Z,9.25
2024-02-28T08:53:11.485Z,8.00
2024-02-28T08:55:39.583Z,9.00
2024-02-28T08:58:07.592Z,8.00
2024-02-28T09:00:35.697Z,9.00
2024-02-28T09:03:06.149Z,8.50
2024-02-28T09:05:34.345Z,8.75
2024-02-28T09:08:02.077Z,8.00
2024-02-28T09:10:32.485Z,8.00
2024-02-28T09:13:00.567Z,9.00
2024-02-28T09:15:28.717Z,8.00
2024-02-28T09:17:56.863Z,7.75
2024-02-28T09:20:26.838Z,8.50
2024-02-28T09:22:54.846Z,8.00
2024-02-28T09:25:24.901Z,8.25
2024-02-28T09:27:54.302Z,8.00
2024-02-28T09:30:22.291Z,7.75
2024-02-28T09:32:50.272Z,8.00
2024-02-28T09:35:18.645Z,8.75
2024-02-28T09:37:48.086Z,7.00
2024-02-28T09:40:16.117Z,8.00
2024-02-28T09:42:46.250Z,7.50
2024-02-28T09:45:14.677Z,8.00
2024-02-28T09:47:43.087Z,8.00
2024-02-28T09:50:11.739Z,8.00
2024-02-28T09:52:39.715Z,7.50
2024-02-28T09:55:10.023Z,7.50
2024-02-28T09:57:38.013Z,7.00
2024-02-28T10:00:09.082Z,8.50
2024-02-28T10:02:39.172Z,7.75
2024-02-28T10:05:08.054Z,7.25
2024-02-28T10:07:36.015Z,6.00
2024-02-28T10:10:05.101Z,7.00
2024-02-28T10:12:34.600Z,8.00
2024-02-28T10:15:02.875Z,7.00
2024-02-28T10:17:30.830Z,7.50
2024-02-28T10:20:00.794Z,7.50
2024-02-28T10:22:28.793Z,7.00
2024-02-28T10:25:00.263Z,7.25
2024-02-28T10:27:28.390Z,7.00
2024-02-28T10:29:57.771Z,8.00
2024-02-28T10:32:25.823Z,6.00
2024-02-28T10:34:54.083Z,8.00
2024-02-28T10:37:22.099Z,8.00
2024-02-28T10:39:50.268Z,7.25
2024-02-28T10:42:18.282Z,7.25
2024-02-28T10:44:46.560Z,8.00
2024-02-28T10:47:16.028Z,8.00
2024-02-28T10:49:45.314Z,7.00
2024-02-28T10:52:14.455Z,7.50
2024-02-28T10:54:43.512Z,7.75
2024-02-28T10:57:12.287Z,7.00
2024-02-28T10:59:40.741Z,7.00
2024-02-28T11:02:08.871Z,6.75
2024-02-28T11:04:38.533Z,7.00
2024-02-28T11:07:07.912Z,7.00
2024-02-28T11:09:36.566Z,7.00
2024-02-28T11:12:06.447Z,7.00
2024-02-28T11:14:37.100Z,6.00
2024-02-28T11:17:06.852Z,8.00
2024-02-28T11:19:36.246Z,8.00
2024-02-28T11:22:07.844Z,7.50
2024-02-28T11:24:38.275Z,8.00
2024-02-28T11:27:07.581Z,7.00
2024-02-28T11:29:35.943Z,6.00
2024-02-28T11:32:03.926Z,7.00
2024-02-28T11:34:32.633Z,6.50
2024-02-28T11:37:01.061Z,7.00
2024-02-28T11:39:32.476Z,6.00
2024-02-28T11:42:11.454Z,7.00
2024-02-28T11:44:39.457Z,7.00
2024-02-28T11:47:07.575Z,6.75
2024-02-28T11:49:35.568Z,7.00
2024-02-28T11:52:03.699Z,8.00
2024-02-28T11:54:33.520Z,7.00
2024-02-28T11:57:01.489Z,6.75
2024-02-28T11:59:29.481Z,7.75
2024-02-28T12:01:57.891Z,8.00
2024-02-28T12:04:26.458Z,7.00
2024-02-28T12:06:54.455Z,7.00
2024-02-28T12:09:28.047Z,7.25
2024-02-28T12:12:05.062Z,7.00
2024-02-28T12:14:33.847Z,6.25
2024-02-28T12:17:01.811Z,7.00
2024-02-28T12:19:29.828Z,7.00
2024-02-28T12:21:58.326Z,7.00
2024-02-28T12:24:26.376Z,7.25
2024-02-28T12:26:54.380Z,7.25
2024-02-28T12:29:23.745Z,7.00
2024-02-28T12:31:51.898Z,7.25
2024-02-28T12:34:20.328Z,7.25
2024-02-28T12:36:48.419Z,7.50
2024-02-28T12:39:16.388Z,8.00
2024-02-28T12:41:44.351Z,6.75
2024-02-28T12:44:12.635Z,7.00
2024-02-28T12:46:42.027Z,8.00
2024-02-28T12:49:10.896Z,7.25
2024-02-28T12:51:39.959Z,6.25
2024-02-28T12:54:08.777Z,7.50
2024-02-28T12:56:37.357Z,7.00
2024-02-28T12:59:05.334Z,7.00
2024-02-28T13:01:33.717Z,8.00
2024-02-28T13:04:03.405Z,8.00
2024-02-28T13:06:31.500Z,7.00
2024-02-28T13:08:59.503Z,8.25
2024-02-28T13:11:27.485Z,7.50
2024-02-28T13:13:57.273Z,7.00
2024-02-28T13:16:25.292Z,7.00
2024-02-28T13:18:53.390Z,8.00
2024-02-28T13:21:23.255Z,7.00
2024-02-28T13:23:51.404Z,7.75
2024-02-28T13:26:20.103Z,8.00
2024-02-28T13:28:50.561Z,6.00
2024-02-28T13:31:20.418Z,6.00
2024-02-28T13:33:49.969Z,7.50
2024-02-28T13:36:18.344Z,7.50
2024-02-28T13:38:47.761Z,7.25
2024-02-28T13:41:17.494Z,6.25
2024-02-28T13:43:45.860Z,7.00
2024-02-28T13:46:15.828Z,7.00
2024-02-28T13:48:44.298Z,7.00
2024-02-28T13:51:12.341Z,7.00
2024-02-28T13:53:40.667Z,6.50
2024-02-28T13:56:10.193Z,7.00
2024-02-28T13:58:43.054Z,7.00
2024-02-28T14:01:17.397Z,6.00
2024-02-28T14:03:45.874Z,6.50
2024-02-28T14:06:15.002Z,7.00
2024-02-28T14:08:43.856Z,7.00
2024-02-28T14:11:13.422Z,6.75
2024-02-28T14:13:42.776Z,8.00
2024-02-28T14:16:10.815Z,7.00
2024-02-28T14:18:39.400Z,7.00
2024-02-28T14:21:08.408Z,6.00
2024-02-28T14:23:36.862Z,7.25
2024-02-28T14:26:05.179Z,6.25
2024-02-28T14:28:34.899Z,7.50
2024-02-28T14:31:03.010Z,7.00
2024-02-28T14:33:31.322Z,7.00
2024-02-28T14:36:00.438Z,7.00
2024-02-28T14:38:27.382Z,7.00
2024-02-28T14:40:55.341Z,6.00
2024-02-28T14:43:23.722Z,7.00
2024-02-28T14:45:54.608Z,8.00
2024-02-28T14:48:25.335Z,6.00
2024-02-28T14:50:54.792Z,7.00
2024-02-28T14:53:23.132Z,7.00
2024-02-28T14:55:51.210Z,7.00
2024-02-28T14:58:19.912Z,7.25
2024-02-28T15:00:50.076Z,7.00
2024-02-28T15:03:21.710Z,6.50
2024-02-28T15:05:50.396Z,7.00
2024-02-28T15:08:18.352Z,6.00
2024-02-28T15:10:46.417Z,7.50
2024-02-28T15:13:14.783Z,5.75
2024-02-28T15:15:43.334Z,7.00
2024-02-28T15:18:11.786Z,6.25
2024-02-28T15:20:41.527Z,6.00
2024-02-28T15:23:10.886Z,6.00
2024-02-28T15:25:39.036Z,5.75
2024-02-28T15:28:07.736Z,7.00
2024-02-28T15:30:35.883Z,6.00
2024-02-28T15:33:05.059Z,6.75
2024-02-28T15:35:33.483Z,6.00
2024-02-28T15:38:02.973Z,7.75
2024-02-28T15:40:31.041Z,5.25
2024-02-28T15:42:59.806Z,5.00
2024-02-28T15:45:28.138Z,6.00
2024-02-28T15:47:56.221Z,6.00
2024-02-28T15:50:24.192Z,6.00
2024-02-28T15:52:52.169Z,5.25
2024-02-28T15:55:22.330Z,7.00
2024-02-28T15:57:50.305Z,6.00
2024-02-28T16:00:18.970Z,6.25
2024-02-28T16:02:46.973Z,6.50
2024-02-28T16:05:15.263Z,6.25
2024-02-28T16:07:43.332Z,7.00
2024-02-28T16:10:11.671Z,7.00
2024-02-28T16:12:41.153Z,6.75
2024-02-28T16:15:12.987Z,8.00
2024-02-28T16:17:41.501Z,8.00
2024-02-28T16:20:10.519Z,6.50
2024-02-28T16:22:38.547Z,9.50
2024-02-28T16:25:07.864Z,8.25
2024-02-28T16:27:38.284Z,6.50
2024-02-28T16:30:11.600Z,7.00
2024-02-28T16:32:39.615Z,8.00
2024-02-28T16:35:09.026Z,7.75
2024-02-28T16:37:36.989Z,7.50
2024-02-28T16:40:07.885Z,8.00
2024-02-28T16:42:36.503Z,7.75
2024-02-28T16:45:05.477Z,7.25
2024-02-28T16:47:35.121Z,7.75
2024-02-28T16:50:03.468Z,8.00
2024-02-28T16:52:31.557Z,7.50
2024-02-28T16:55:00.579Z,7.00
2024-02-28T16:57:28.730Z,8.00
2024-02-28T16:59:56.932Z,7.25
2024-02-28T17:02:25.001Z,7.00
2024-02-28T17:04:54.952Z,7.00
2024-02-28T17:07:23.051Z,7.25
2024-02-28T17:09:51.238Z,7.00
2024-02-28T17:12:19.289Z,8.00
2024-02-28T17:14:47.524Z,8.50
2024-02-28T17:17:16.034Z,9.00
2024-02-28T17:19:44.143Z,10.00
2024-02-28T17:22:13.533Z,9.00
2024-02-28T17:24:41.534Z,8.50
2024-02-28T17:27:09.568Z,10.00
2024-02-28T17:29:38.452Z,10.00
2024-02-28T17:32:07.055Z,10.00
2024-02-28T17:34:35.388Z,10.00
2024-02-28T17:37:04.086Z,10.00
2024-02-28T17:39:33.522Z,9.50
2024-02-28T17:42:01.720Z,10.00
2024-02-28T17:44:29.925Z,9.00
2024-02-28T17:46:57.980Z,9.00
2024-02-28T17:49:26.012Z,9.00
2024-02-28T17:51:55.519Z,9.25
2024-02-28T17:54:23.952Z,9.00
2024-02-28T17:56:53.484Z,9.25
2024-02-28T17:59:21.434Z,10.00
2024-02-28T18:01:49.508Z,10.00
2024-02-28T18:04:18.730Z,9.50
2024-02-28T18:06:46.793Z,10.00
2024-02-28T18:09:19.265Z,10.00
2024-02-28T18:11:47.331Z,8.75
2024-02-28T18:14:17.571Z,10.00
2024-02-28T18:16:45.556Z,9.50
2024-02-28T18:19:13.682Z,10.75
2024-02-28T18:21:41.811Z,8.50
2024-02-28T18:24:10.027Z,9.50
2024-02-28T18:26:38.047Z,10.00
2024-02-28T18:29:07.076Z,8.00
2024-02-28T18:31:36.752Z,8.00
2024-02-28T18:34:06.105Z,8.25
2024-02-28T18:36:34.127Z,8.75
2024-02-28T18:39:04.030Z,8.25
2024-02-28T18:41:32.105Z,11.00
2024-02-28T18:44:00.352Z,10.75
2024-02-28T18:46:28.459Z,9.25
2024-02-28T18:48:57.870Z,10.25
2024-02-28T18:51:25.928Z,11.00
2024-02-28T18:53:54.199Z,12.25
2024-02-28T18:56:22.180Z,11.25
2024-02-28T18:58:50.106Z,12.00
2024-02-28T19:01:20.051Z,11.50
2024-02-28T19:03:48.629Z,13.25
2024-02-28T19:06:18.820Z,12.00
2024-02-28T19:08:47.340Z,13.00
2024-02-28T19:11:15.369Z,12.75
2024-02-28T19:13:43.796Z,13.00
2024-02-28T19:16:11.825Z,12.00
2024-02-28T19:18:41.254Z,13.00
2024-02-28T19:21:09.565Z,12.25
2024-02-28T19:23:41.606Z,14.00
2024-02-28T19:26:09.811Z,13.75
2024-02-28T19:28:37.758Z,14.25
2024-02-28T19:31:06.041Z,14.75
2024-02-28T19:33:37.127Z,16.25
2024-02-28T19:36:06.203Z,16.25
2024-02-28T19:38:34.195Z,14.50
2024-02-28T19:41:03.618Z,14.50
2024-02-28T19:43:33.097Z,14.25
2024-02-28T19:46:01.929Z,16.00
2024-02-28T19:48:30.287Z,16.00
2024-02-28T19:50:58.242Z,15.00
2024-02-28T19:53:26.530Z,15.00
2024-02-28T19:55:54.525Z,14.25
2024-02-28T19:58:24.476Z,14.50
2024-02-28T20:00:52.595Z,14.25
2024-02-28T20:03:21.125Z,14.00
2024-02-28T20:05:49.100Z,14.00
2024-02-28T20:08:17.363Z,15.00
2024-02-28T20:10:45.476Z,16.00
2024-02-28T20:13:14.836Z,15.25
2024-02-28T20:15:44.268Z,15.50
2024-02-28T20:18:12.303Z,17.00
2024-02-28T20:20:40.679Z,16.25
2024-02-28T20:23:08.946Z,14.50
2024-02-28T20:25:37.445Z,15.00
2024-02-28T20:28:07.602Z,16.00
2024-02-28T20:30:36.919Z,15.00
2024-02-28T20:33:07.005Z,17.75
2024-02-28T20:35:34.985Z,16.00
2024-02-28T20:38:03.052Z,17.25
2024-02-28T20:40:31.001Z,15.00
2024-02-28T20:42:59.042Z,15.50
2024-02-28T20:45:27.378Z,16.00
2024-02-28T20:47:55.423Z,17.00
2024-02-28T20:50:26.233Z,15.00
2024-02-28T20:52:54.290Z,16.00
2024-02-28T20:55:26.331Z,14.75
2024-02-28T20:57:54.447Z,15.00
2024-02-28T21:00:23.078Z,14.75
2024-02-28T21:02:51.201Z,15.75
2024-02-28T21:05:19.573Z,13.50
2024-02-28T21:07:53.252Z,14.00
2024-02-28T21:10:22.659Z,14.00
2024-02-28T21:12:50.925Z,14.50
2024-02-28T21:15:19.250Z,15.00
2024-02-28T21:17:47.356Z,15.50
2024-02-28T21:20:15.329Z,14.50
2024-02-28T21:22:43.295Z,17.00
2024-02-28T21:25:13.068Z,14.50
2024-02-28T21:27:41.082Z,16.50
2024-02-28T21:30:15.065Z,16.00
2024-02-28T21:32:43.381Z,14.25
2024-02-28T21:35:13.168Z,16.00
2024-02-28T21:37:41.296Z,15.75
2024-02-28T21:40:10.002Z,15.50
2024-02-28T21:42:39.552Z,16.00
2024-02-28T21:45:12.724Z,16.00
2024-02-28T21:47:40.746Z,15.00
2024-02-28T21:50:09.665Z,17.00
2024-02-28T21:52:37.724Z,16.75
2024-02-28T21:55:06.498Z,17.00
2024-02-28T21:57:34.639Z,16.25
2024-02-28T22:00:04.094Z,14.00
2024-02-28T22:02:32.060Z,14.75
2024-02-28T22:05:00.548Z,15.00
2024-02-28T22:07:28.576Z,14.00
2024-02-28T22:09:56.539Z,15.00
2024-02-28T22:12:24.499Z,15.25
2024-02-28T22:14:52.741Z,14.00
2024-02-28T22:17:22.152Z,15.00
2024-02-28T22:19:50.231Z,14.50
2024-02-28T22:22:18.212Z,15.00
2024-02-28T22:24:46.263Z,13.00
2024-02-28T22:27:14.268Z,12.50
2024-02-28T22:29:42.288Z,14.25
2024-02-28T22:32:10.265Z,13.00
2024-02-28T22:34:39.895Z,13.75
2024-02-28T22:37:07.991Z,13.75
2024-02-28T22:39:36.126Z,15.00
2024-02-28T22:42:05.069Z,15.00
2024-02-28T22:44:33.365Z,14.75
2024-02-28T22:47:01.298Z,17.50
2024-02-28T22:49:30.034Z,17.75
2024-02-28T22:51:59.512Z,16.75
2024-02-28T22:54:27.863Z,16.00
2024-02-28T22:56:55.960Z,16.25
2024-02-28T22:59:24.005Z,15.75
2024-02-28T23:01:52.117Z,17.00
2024-02-28T23:04:20.423Z,18.75
2024-02-28T23:06:48.443Z,18.00
2024-02-28T23:09:17.868Z,17.25
2024-02-28T23:11:46.030Z,17.75
2024-02-28T23:14:15.592Z,15.00
2024-02-28T23:16:44.703Z,17.50
2024-02-28T23:19:13.630Z,18.50
2024-02-28T23:21:41.729Z,18.75
2024-02-28T23:24:09.870Z,20.00
2024-02-28T23:26:39.225Z,18.00
2024-02-28T23:29:07.232Z,18.00
2024-02-28T23:31:35.193Z,17.75
2024-02-28T23:34:03.472Z,18.00
2024-02-28T23:36:31.452Z,17.25
2024-02-28T23:38:59.422Z,17.50
2024-02-28T23:41:27.373Z,17.25
2024-02-28T23:43:58.514Z,16.75
2024-02-28T23:46:26.700Z,16.00
2024-02-28T23:48:54.817Z,16.00
2024-02-28T23:51:22.827Z,16.25
2024-02-28T23:53:51.034Z,16.00
2024-02-28T23:56:21.307Z,15.75
2024-02-28T23:58:49.278Z,15.25
